메인 페이지
METAR-TAF:

METAR-TAF

공항 :

바마코, 말리

위도: 12-32N, 경도: 007-57W, 고도: 380m

현재 날씨관측

예보는 27분 전, 19:00시(UTC)에 발표되었습니다.
동북동5kt
온도 31°C
습도 63%
기압 1010 hPa
시정 10km 이상
1500m 미만 상공 구름 및 적란운 없음

METAR: GABS 201900Z 07005KT CAVOK 31/23 Q1010 NOSIG

시각: 19:27 (19:27 UTC)

예보

예보는 1 시간 52분 전, 17:35시(UTC)에 발표되었습니다.
예보 대상 시간: 20일 18시부터 21일 24시까지 (UTC)
남남동6kt
시정 10km 이상
고도 3000ft 상공 구름 조금
확률 40% :
일시적
21일 02시부터 21일 06시까지 (UTC)
동북동15kt, 순간 최대 풍속 35kt
시정: 2000m
고도 2600ft 상공 구름 보통
고도 3300ft 상공 구름 조금, 적란운.
날린먼지, 뇌우, 비
일시적
21일 09시부터 21일 15시까지 (UTC)
25kt, 순간 최대 풍속 40kt
시정: 1200m
고도 2600ft 상공 구름 많음
고도 3300ft 상공 구름 보통, 적란운.
스콜, 날린먼지, 뇌우, 비

TAF: GABS 201735Z 2018/2124 16006KT 9999 FEW030 PROB40 TEMPO 2102/2106 06015G35KT 2000 BLDU TSRA SCT026 FEW033CB TEMPO 2109/2115 08025G40KT 1200 SQ BLDU TSRA BKN026 SCT033CB

4,000개 이상의 공항 관측 자료 및 예보 (METAR 및 TAF 보고).

지도상에서 검색 가능한 기상관측소가 노란 점과 빨간 점으로 표시되어 있습니다.

기상관측소 명을 보려면 표시 위로 마우스를 이동하세요.

날씨 관측과 예보를 보려면 클릭하세요.

지도 변경 : 확대하려면 엑스 표시가 있는 녹색 버튼, 축소하려면 빼기 표시가 있는 녹색 버튼, 다음 페이지의 지도를 보려면 녹색 화살표를 클릭하세요.


METAR-TAF: